createdAt,value
2019-05-23T00:00:55.893Z,10.04
2019-05-23T00:01:56.751Z,10.07
2019-05-23T00:02:56.337Z,10.09
2019-05-23T00:03:56.094Z,9.97
2019-05-23T00:04:56.326Z,9.99
2019-05-23T00:05:56.102Z,10.05
2019-05-23T00:06:56.092Z,9.97
2019-05-23T00:07:59.346Z,9.89
2019-05-23T00:08:59.338Z,10.02
2019-05-23T00:09:56.282Z,9.97
2019-05-23T00:10:55.851Z,10.04
2019-05-23T00:11:56.027Z,9.95
2019-05-23T00:12:55.794Z,9.99
2019-05-23T00:13:55.790Z,9.98
2019-05-23T00:14:56.269Z,9.92
2019-05-23T00:15:56.273Z,9.83
2019-05-23T00:16:56.033Z,9.94
2019-05-23T00:17:56.255Z,9.83
2019-05-23T00:19:02.535Z,9.86
2019-05-23T00:19:56.269Z,9.82
2019-05-23T00:20:56.003Z,9.86
2019-05-23T00:21:55.993Z,9.77
2019-05-23T00:22:56.228Z,9.77
2019-05-23T00:23:55.973Z,9.77
2019-05-23T00:24:56.000Z,9.82
2019-05-23T00:25:56.215Z,9.77
2019-05-23T00:26:55.965Z,9.72
2019-05-23T00:27:56.199Z,9.72
2019-05-23T00:29:11.829Z,9.74
2019-05-23T00:29:59.216Z,9.65
2019-05-23T00:30:56.190Z,9.65
2019-05-23T00:31:55.939Z,9.66
2019-05-23T00:32:55.938Z,9.59
2019-05-23T00:33:56.160Z,9.54
2019-05-23T00:34:56.159Z,9.54
2019-05-23T00:35:56.168Z,9.58
2019-05-23T00:36:56.204Z,9.58
2019-05-23T00:37:56.194Z,9.55
2019-05-23T00:38:56.168Z,9.54
2019-05-23T00:39:56.531Z,9.48
2019-05-23T00:40:59.178Z,9.58
2019-05-23T00:41:55.906Z,9.55
2019-05-23T00:42:56.129Z,9.58
2019-05-23T00:43:56.125Z,9.58
2019-05-23T00:44:56.121Z,9.55
2019-05-23T00:45:55.873Z,9.58
2019-05-23T00:46:55.932Z,9.55
2019-05-23T00:47:55.846Z,9.58
2019-05-23T00:48:56.116Z,9.55
2019-05-23T00:49:56.091Z,9.61
2019-05-23T00:51:04.852Z,9.48
2019-05-23T00:51:56.070Z,9.51
2019-05-23T00:52:56.074Z,9.59
2019-05-23T00:53:56.050Z,9.56
2019-05-23T00:54:55.819Z,9.55
2019-05-23T00:55:56.050Z,9.56
2019-05-23T00:56:55.797Z,9.54
2019-05-23T00:57:56.027Z,9.51
2019-05-23T00:58:56.026Z,9.43
2019-05-23T00:59:55.764Z,9.46
2019-05-23T01:00:56.369Z,9.44
2019-05-23T01:01:58.801Z,9.48
2019-05-23T01:02:55.999Z,9.41
2019-05-23T01:03:55.751Z,9.37
2019-05-23T01:04:55.988Z,9.46
2019-05-23T01:05:56.004Z,9.46
2019-05-23T01:06:55.748Z,9.46
2019-05-23T01:07:55.965Z,9.36
2019-05-23T01:08:55.964Z,9.36
2019-05-23T01:09:55.951Z,9.39
2019-05-23T01:10:55.949Z,9.44
2019-05-23T01:11:56.010Z,9.4
2019-05-23T01:12:57.180Z,9.44
2019-05-23T01:13:55.694Z,9.4
2019-05-23T01:14:55.685Z,9.4
2019-05-23T01:15:55.919Z,9.47
2019-05-23T01:16:55.947Z,9.37
2019-05-23T01:17:55.666Z,9.39
2019-05-23T01:18:55.701Z,9.48
2019-05-23T01:19:55.897Z,9.41
2019-05-23T01:20:55.640Z,9.48
2019-05-23T01:21:55.901Z,9.36
2019-05-23T01:22:58.664Z,9.44
2019-05-23T01:23:58.907Z,9.37
2019-05-23T01:24:55.870Z,9.39
2019-05-23T01:25:55.379Z,9.32
2019-05-23T01:26:55.915Z,9.29
2019-05-23T01:27:56.045Z,9.44
2019-05-23T01:28:55.859Z,9.37
2019-05-23T01:29:55.862Z,9.46
2019-05-23T01:30:55.843Z,9.36
2019-05-23T01:31:55.416Z,9.34
2019-05-23T01:32:55.812Z,9.47
2019-05-23T01:34:02.108Z,9.44
2019-05-23T01:34:55.574Z,9.4
2019-05-23T01:35:55.826Z,9.4
2019-05-23T01:36:55.809Z,9.47
2019-05-23T01:37:55.556Z,9.58
2019-05-23T01:38:55.314Z,9.54
2019-05-23T01:39:55.535Z,9.58
2019-05-23T01:40:55.765Z,9.58
2019-05-23T01:41:55.866Z,9.54
2019-05-23T01:42:55.754Z,9.58
2019-05-23T01:43:55.269Z,9.59
2019-05-23T01:44:58.529Z,9.54
2019-05-23T01:45:55.278Z,9.54
2019-05-23T01:46:55.760Z,9.62
2019-05-23T01:47:55.727Z,9.65
2019-05-23T01:48:55.462Z,9.66
2019-05-23T01:49:55.715Z,9.73
2019-05-23T01:50:55.561Z,9.8
2019-05-23T01:51:55.590Z,9.87
2019-05-23T01:52:55.457Z,9.89
2019-05-23T01:53:55.442Z,9.82
2019-05-23T01:54:56.846Z,9.86
2019-05-23T01:55:58.479Z,9.86
2019-05-23T01:56:55.445Z,9.86
2019-05-23T01:57:55.419Z,9.87
2019-05-23T01:58:55.179Z,9.91
2019-05-23T02:00:14.395Z,9.91
2019-05-23T02:00:55.651Z,9.84
2019-05-23T02:01:55.635Z,9.94
2019-05-23T02:02:55.379Z,9.92
2019-05-23T02:03:55.155Z,9.89
2019-05-23T02:04:55.369Z,9.91
2019-05-23T02:05:58.155Z,9.94
2019-05-23T02:06:55.407Z,9.86
2019-05-23T02:07:55.610Z,9.84
2019-05-23T02:08:55.136Z,9.89
2019-05-23T02:09:55.603Z,9.89
2019-05-23T02:10:55.582Z,10.01
2019-05-23T02:11:55.342Z,9.99
2019-05-23T02:12:55.339Z,9.94
2019-05-23T02:13:55.086Z,9.94
2019-05-23T02:14:55.308Z,9.94
2019-05-23T02:15:55.072Z,10.01
2019-05-23T02:16:58.358Z,9.91
2019-05-23T02:17:55.191Z,9.98
2019-05-23T02:18:55.308Z,9.86
2019-05-23T02:19:55.294Z,9.97
2019-05-23T02:20:55.290Z,9.98
2019-05-23T02:21:55.534Z,10.01
2019-05-23T02:22:55.516Z,9.98
2019-05-23T02:23:55.512Z,10.04
2019-05-23T02:24:55.535Z,10.02
2019-05-23T02:25:55.257Z,9.97
2019-05-23T02:26:55.220Z,9.86
2019-05-23T02:27:58.513Z,9.91
2019-05-23T02:28:55.504Z,9.89
2019-05-23T02:29:55.241Z,9.84
2019-05-23T02:30:55.229Z,9.8
2019-05-23T02:31:55.460Z,9.77
2019-05-23T02:32:55.468Z,9.8
2019-05-23T02:33:55.217Z,9.76
2019-05-23T02:34:54.937Z,9.69
2019-05-23T02:35:55.429Z,9.61
2019-05-23T02:36:55.212Z,9.72
2019-05-23T02:37:58.861Z,9.74
2019-05-23T02:38:54.927Z,9.68
2019-05-23T02:39:55.564Z,9.76
2019-05-23T02:40:55.398Z,9.76
2019-05-23T02:41:55.427Z,9.77
2019-05-23T02:42:55.176Z,9.73
2019-05-23T02:43:55.154Z,9.79
2019-05-23T02:44:55.145Z,9.89
2019-05-23T02:45:55.384Z,9.87
2019-05-23T02:46:55.374Z,9.83
2019-05-23T02:47:55.369Z,9.77
2019-05-23T02:48:58.146Z,9.74
2019-05-23T02:49:55.380Z,9.65
2019-05-23T02:50:55.105Z,9.62
2019-05-23T02:51:55.102Z,9.55
2019-05-23T02:52:55.157Z,9.5
2019-05-23T02:53:55.316Z,9.59
2019-05-23T02:54:55.361Z,9.5
2019-05-23T02:55:55.057Z,9.56
2019-05-23T02:56:55.071Z,9.54
2019-05-23T02:57:55.340Z,9.58
2019-05-23T02:58:55.303Z,9.55
2019-05-23T03:00:01.337Z,9.54
2019-05-23T03:01:03.171Z,9.41
2019-05-23T03:01:55.104Z,9.41
2019-05-23T03:02:55.261Z,9.48
2019-05-23T03:03:55.006Z,9.5
2019-05-23T03:04:55.013Z,9.55
2019-05-23T03:05:55.276Z,9.55
2019-05-23T03:06:54.998Z,9.51
2019-05-23T03:07:55.253Z,9.4
2019-05-23T03:08:54.981Z,9.41
2019-05-23T03:09:56.469Z,9.31
2019-05-23T03:10:57.999Z,9.31
2019-05-23T03:11:55.020Z,9.25
2019-05-23T03:12:54.963Z,9.19
2019-05-23T03:13:55.245Z,9.13
2019-05-23T03:14:55.207Z,9.08
2019-05-23T03:15:55.179Z,9.1
2019-05-23T03:16:54.914Z,9.06
2019-05-23T03:17:55.197Z,8.91
2019-05-23T03:18:55.169Z,8.95
2019-05-23T03:19:54.892Z,8.89
2019-05-23T03:20:58.191Z,8.88
2019-05-23T03:21:54.907Z,8.88
2019-05-23T03:22:55.149Z,8.89
2019-05-23T03:23:54.882Z,8.88
2019-05-23T03:24:54.935Z,8.88
2019-05-23T03:25:54.860Z,8.87
2019-05-23T03:26:55.121Z,8.91
2019-05-23T03:27:55.118Z,8.92
2019-05-23T03:28:55.108Z,9.02
2019-05-23T03:29:55.108Z,9.14
2019-05-23T03:31:21.665Z,9.11
2019-05-23T03:31:58.148Z,9.14
2019-05-23T03:32:54.853Z,9.14
2019-05-23T03:33:55.228Z,9.16
2019-05-23T03:34:55.101Z,9.19
2019-05-23T03:35:55.061Z,9.21
2019-05-23T03:36:55.035Z,9.16
2019-05-23T03:37:54.814Z,9.16
2019-05-23T03:38:55.028Z,9.11
2019-05-23T03:39:54.777Z,9.18
2019-05-23T03:40:54.761Z,9.18
2019-05-23T03:41:55.363Z,9.16
2019-05-23T03:42:57.782Z,9.18
2019-05-23T03:43:54.990Z,9.08
2019-05-23T03:44:54.962Z,9.1
2019-05-23T03:45:54.975Z,9.11
2019-05-23T03:46:55.010Z,9.02
2019-05-23T03:47:54.977Z,9.16
2019-05-23T03:48:54.946Z,9.02
2019-05-23T03:49:54.940Z,9.04
2019-05-23T03:50:54.949Z,9.11
2019-05-23T03:51:54.679Z,9.1
2019-05-23T03:52:59.222Z,9.1
2019-05-23T03:53:54.918Z,9.16
2019-05-23T03:54:54.945Z,9.18
2019-05-23T03:55:54.954Z,9.19
2019-05-23T03:56:54.755Z,9.16
2019-05-23T03:57:54.402Z,9.16
2019-05-23T03:58:54.866Z,9.21
2019-05-23T03:59:54.875Z,9.14
2019-05-23T04:00:54.636Z,9.16
2019-05-23T04:01:54.605Z,9.19
2019-05-23T04:02:54.614Z,9.19
2019-05-23T04:03:57.633Z,9.26
2019-05-23T04:04:54.622Z,9.26
2019-05-23T04:05:54.831Z,9.54
2019-05-23T04:06:54.338Z,9.58
2019-05-23T04:07:54.823Z,9.69
2019-05-23T04:08:54.818Z,9.92
2019-05-23T04:09:54.811Z,10.1
2019-05-23T04:10:56.758Z,10.2
2019-05-23T04:11:54.554Z,10.35
2019-05-23T04:12:54.777Z,10.56
2019-05-23T04:13:54.802Z,10.59
2019-05-23T04:14:55.719Z,10.75
2019-05-23T04:15:54.551Z,10.86
2019-05-23T04:16:54.785Z,10.9
2019-05-23T04:17:54.782Z,11
2019-05-23T04:18:54.750Z,11.15
2019-05-23T04:19:54.758Z,11.23
2019-05-23T04:20:54.766Z,11.37
2019-05-23T04:21:54.482Z,11.44
2019-05-23T04:22:54.491Z,11.52
2019-05-23T04:23:54.250Z,11.57
2019-05-23T04:24:55.659Z,11.66
2019-05-23T04:25:57.764Z,11.83
2019-05-23T04:26:54.218Z,11.97
2019-05-23T04:27:54.742Z,12.15
2019-05-23T04:28:54.476Z,12.12
2019-05-23T04:29:54.724Z,12.25
2019-05-23T04:30:54.707Z,12.27
2019-05-23T04:32:11.415Z,12.47
2019-05-23T04:32:54.475Z,12.53
2019-05-23T04:33:54.696Z,12.76
2019-05-23T04:34:54.449Z,12.82
2019-05-23T04:35:57.756Z,12.86
2019-05-23T04:36:54.753Z,12.93
2019-05-23T04:37:54.434Z,12.79
2019-05-23T04:38:54.728Z,12.82
2019-05-23T04:39:54.197Z,12.98
2019-05-23T04:40:54.454Z,13.01
2019-05-23T04:41:54.422Z,13.15
2019-05-23T04:42:54.713Z,13.16
2019-05-23T04:43:54.706Z,13.04
2019-05-23T04:44:54.623Z,12.94
2019-05-23T04:45:54.666Z,12.78
2019-05-23T04:46:57.726Z,12.5
2019-05-23T04:47:54.422Z,12.31
2019-05-23T04:48:54.442Z,12.18
2019-05-23T04:49:54.668Z,12.35
2019-05-23T04:50:54.659Z,12.35
2019-05-23T04:51:54.792Z,12.45
2019-05-23T04:52:54.669Z,12.6
2019-05-23T04:53:54.410Z,12.64
2019-05-23T04:54:54.428Z,12.72
2019-05-23T04:55:54.667Z,12.68
2019-05-23T04:56:55.352Z,12.76
2019-05-23T04:57:57.723Z,12.82
2019-05-23T04:58:54.404Z,12.98
2019-05-23T04:59:54.631Z,12.97
2019-05-23T05:00:54.399Z,12.9
2019-05-23T05:01:54.396Z,13
2019-05-23T05:02:54.640Z,12.94
2019-05-23T05:03:54.235Z,12.85
2019-05-23T05:04:54.391Z,12.91
2019-05-23T05:05:54.625Z,12.86
2019-05-23T05:06:54.625Z,12.95
2019-05-23T05:07:57.438Z,13.03
2019-05-23T05:08:54.384Z,13.03
2019-05-23T05:09:54.629Z,13.15
2019-05-23T05:10:54.363Z,13.19
2019-05-23T05:11:54.367Z,13.27
2019-05-23T05:12:54.638Z,13.39
2019-05-23T05:13:54.163Z,13.47
2019-05-23T05:14:54.390Z,13.71
2019-05-23T05:15:54.372Z,13.89
2019-05-23T05:16:54.109Z,14.14
2019-05-23T05:17:54.362Z,14.3
2019-05-23T05:18:57.765Z,14.63
2019-05-23T05:19:54.354Z,14.7
2019-05-23T05:20:54.651Z,14.81
2019-05-23T05:21:54.095Z,15.06
2019-05-23T05:22:54.350Z,15.14
2019-05-23T05:23:54.359Z,15.33
2019-05-23T05:24:54.369Z,15.4
2019-05-23T05:25:54.112Z,15.4
2019-05-23T05:26:54.123Z,15.62
2019-05-23T05:27:54.590Z,15.65
2019-05-23T05:28:54.593Z,15.58
2019-05-23T05:30:00.897Z,15.73
2019-05-23T05:30:54.393Z,15.61
2019-05-23T05:31:54.681Z,15.8
2019-05-23T05:32:54.597Z,15.91
2019-05-23T05:33:54.600Z,16.16
2019-05-23T05:34:54.371Z,16.24
2019-05-23T05:35:54.342Z,16.32
2019-05-23T05:36:54.607Z,16.54
2019-05-23T05:37:54.622Z,16.53
2019-05-23T05:38:54.378Z,16.75
2019-05-23T05:39:56.025Z,16.71
2019-05-23T05:40:57.667Z,16.75
2019-05-23T05:41:54.399Z,16.79
2019-05-23T05:42:54.616Z,16.83
2019-05-23T05:43:54.614Z,16.9
2019-05-23T05:44:54.617Z,16.89
2019-05-23T05:45:54.374Z,16.74
2019-05-23T05:46:54.183Z,16.6
2019-05-23T05:47:54.628Z,16.32
2019-05-23T05:48:54.405Z,15.9
2019-05-23T05:49:54.383Z,15.52
2019-05-23T05:50:57.692Z,15.14
2019-05-23T05:51:54.139Z,14.88
2019-05-23T05:52:54.695Z,14.65
2019-05-23T05:53:54.164Z,14.51
2019-05-23T05:54:54.375Z,14.41
2019-05-23T05:55:54.477Z,14.33
2019-05-23T05:56:54.710Z,14.44
2019-05-23T05:57:54.635Z,14.58
2019-05-23T05:58:54.393Z,14.96
2019-05-23T05:59:54.644Z,15.21
2019-05-23T06:00:54.644Z,15.44
2019-05-23T06:01:57.666Z,15.64
2019-05-23T06:03:09.152Z,15.95
2019-05-23T06:03:54.673Z,16.05
2019-05-23T06:04:54.628Z,16.42
2019-05-23T06:05:54.396Z,16.76
2019-05-23T06:06:55.076Z,16.94
2019-05-23T06:07:54.629Z,17.14
2019-05-23T06:08:54.670Z,17.39
2019-05-23T06:09:54.391Z,17.76
2019-05-23T06:10:54.733Z,18.13
2019-05-23T06:11:54.859Z,18.28
2019-05-23T06:12:57.668Z,18.6
2019-05-23T06:13:54.575Z,18.73
2019-05-23T06:14:54.464Z,18.93
2019-05-23T06:15:54.642Z,18.75
2019-05-23T06:16:54.647Z,18.55
2019-05-23T06:17:54.437Z,18.34
2019-05-23T06:18:54.646Z,18.41
2019-05-23T06:19:54.661Z,18.7
2019-05-23T06:20:54.408Z,18.78
2019-05-23T06:21:54.772Z,19
2019-05-23T06:22:57.719Z,19
2019-05-23T06:24:00.681Z,19.16
2019-05-23T06:25:06.999Z,19.39
2019-05-23T06:25:54.684Z,19.39
2019-05-23T06:26:54.426Z,19.49
2019-05-23T06:27:54.683Z,19.52
2019-05-23T06:28:54.420Z,19.59
2019-05-23T06:29:54.674Z,19.73
2019-05-23T06:30:54.205Z,19.74
2019-05-23T06:31:54.691Z,19.79
2019-05-23T06:32:54.478Z,20.02
2019-05-23T06:34:00.980Z,20.29
2019-05-23T06:34:54.477Z,20.39
2019-05-23T06:35:54.699Z,20.52
2019-05-23T06:36:54.460Z,20.72
2019-05-23T06:37:54.755Z,20.87
2019-05-23T06:38:54.527Z,20.84
2019-05-23T06:39:54.733Z,20.95
2019-05-23T06:40:54.481Z,21.05
2019-05-23T06:41:54.497Z,21.09
2019-05-23T06:42:55.961Z,21.24
2019-05-23T06:43:54.775Z,20.99
2019-05-23T06:44:57.768Z,20.97
2019-05-23T06:45:54.743Z,20.85
2019-05-23T06:46:54.780Z,20.93
2019-05-23T06:47:54.772Z,20.97
2019-05-23T06:48:54.755Z,21.02
2019-05-23T06:49:54.759Z,20.88
2019-05-23T06:50:54.853Z,20.72
2019-05-23T06:51:54.594Z,20.67
2019-05-23T06:52:54.779Z,20.77
2019-05-23T06:53:54.525Z,20.8
2019-05-23T06:54:59.089Z,21.02
2019-05-23T06:55:57.840Z,21.14
2019-05-23T06:56:54.845Z,21.52
2019-05-23T06:57:54.801Z,21.58
2019-05-23T06:58:54.554Z,21.93
2019-05-23T06:59:54.555Z,21.93
2019-05-23T07:00:54.995Z,22.13
2019-05-23T07:01:54.615Z,22.28
2019-05-23T07:02:54.580Z,22.36
2019-05-23T07:03:54.818Z,22.29
2019-05-23T07:04:54.576Z,22.29
2019-05-23T07:05:57.861Z,22.1
2019-05-23T07:06:54.913Z,21.91
2019-05-23T07:07:54.857Z,21.76
2019-05-23T07:08:54.923Z,21.55
2019-05-23T07:09:54.860Z,21.54
2019-05-23T07:10:54.862Z,21.51
2019-05-23T07:11:54.864Z,21.48
2019-05-23T07:12:54.625Z,21.64
2019-05-23T07:13:54.621Z,21.66
2019-05-23T07:14:54.951Z,21.61
2019-05-23T07:15:54.625Z,21.57
2019-05-23T07:16:56.446Z,21.62
2019-05-23T07:17:54.875Z,21.7
2019-05-23T07:18:54.915Z,21.93
2019-05-23T07:19:54.889Z,21.92
2019-05-23T07:20:54.655Z,22
2019-05-23T07:21:54.942Z,22.22
2019-05-23T07:22:54.702Z,22.33
2019-05-23T07:23:54.913Z,22.3
2019-05-23T07:25:03.058Z,22.43
2019-05-23T07:25:54.922Z,22.32
2019-05-23T07:26:54.681Z,22.35
2019-05-23T07:28:01.344Z,22.3
2019-05-23T07:28:55.035Z,22.43
2019-05-23T07:29:54.985Z,22.66
2019-05-23T07:30:54.951Z,22.85
2019-05-23T07:31:54.510Z,23.15
2019-05-23T07:32:54.707Z,23.5
2019-05-23T07:34:06.411Z,23.47
2019-05-23T07:34:54.964Z,23.62
2019-05-23T07:35:54.992Z,23.68
2019-05-23T07:36:54.981Z,23.55
2019-05-23T07:37:56.153Z,23.47
2019-05-23T07:38:57.819Z,23.39
2019-05-23T07:39:55.015Z,23.58
2019-05-23T07:40:54.744Z,23.63
2019-05-23T07:41:55.074Z,23.55
2019-05-23T07:42:54.760Z,23.44
2019-05-23T07:43:55.016Z,23.4
2019-05-23T07:44:54.581Z,23.18
2019-05-23T07:45:55.018Z,22.88
2019-05-23T07:46:55.042Z,23
2019-05-23T07:47:54.797Z,23.08
2019-05-23T07:48:57.826Z,23.13
2019-05-23T07:49:55.032Z,23.27
2019-05-23T07:50:54.820Z,23.46
2019-05-23T07:51:55.090Z,23.63
2019-05-23T07:52:54.906Z,23.91
2019-05-23T07:53:55.565Z,24.23
2019-05-23T07:54:55.076Z,24.43
2019-05-23T07:55:55.094Z,24.66
2019-05-23T07:56:54.824Z,24.78
2019-05-23T07:57:54.831Z,24.92
2019-05-23T07:58:55.103Z,25.14
2019-05-23T07:59:57.630Z,25.28
2019-05-23T08:00:55.111Z,25.28
2019-05-23T08:01:54.665Z,25.43
2019-05-23T08:02:54.909Z,25.4
2019-05-23T08:03:54.898Z,25.59
2019-05-23T08:04:54.902Z,25.83
2019-05-23T08:05:54.889Z,25.84
2019-05-23T08:06:54.891Z,26.06
2019-05-23T08:07:55.315Z,26.41
2019-05-23T08:08:55.134Z,26.68
2019-05-23T08:09:55.167Z,26.58
2019-05-23T08:10:56.746Z,26.52
2019-05-23T08:11:55.174Z,26.37
2019-05-23T08:12:54.671Z,26.18
2019-05-23T08:13:55.183Z,25.6
2019-05-23T08:14:55.238Z,24.98
2019-05-23T08:15:54.953Z,24.7
2019-05-23T08:16:54.961Z,24.57
2019-05-23T08:17:54.967Z,24.42
2019-05-23T08:18:55.274Z,24.28
2019-05-23T08:19:55.467Z,24.51
2019-05-23T08:20:58.280Z,24.88
2019-05-23T08:21:58.278Z,25.21
2019-05-23T08:22:55.253Z,25.47
2019-05-23T08:23:55.264Z,25.7
2019-05-23T08:24:56.301Z,26.21
2019-05-23T08:25:55.025Z,26.38
2019-05-23T08:26:55.571Z,26.55
2019-05-23T08:27:55.012Z,26.55
2019-05-23T08:29:28.816Z,26.77
2019-05-23T08:29:55.297Z,26.78
2019-05-23T08:30:55.303Z,26.83
2019-05-23T08:32:01.630Z,26.68
2019-05-23T08:32:55.318Z,26.47
2019-05-23T08:33:55.064Z,26.16
2019-05-23T08:34:55.347Z,25.96
2019-05-23T08:35:55.342Z,26.06
2019-05-23T08:36:55.403Z,26.03
2019-05-23T08:37:56.145Z,26.43
2019-05-23T08:38:55.084Z,26.59
2019-05-23T08:39:55.202Z,26.8
2019-05-23T08:40:55.370Z,26.85
2019-05-23T08:41:55.123Z,26.31
2019-05-23T08:42:58.230Z,25.29
2019-05-23T08:43:55.412Z,24.43
2019-05-23T08:44:55.385Z,23.56
2019-05-23T08:45:55.406Z,22.63
2019-05-23T08:46:55.146Z,21.89
2019-05-23T08:47:55.154Z,21.45
2019-05-23T08:48:55.415Z,21.06
2019-05-23T08:49:55.152Z,20.85
2019-05-23T08:50:56.591Z,20.84
2019-05-23T08:51:55.190Z,20.82
2019-05-23T08:52:56.238Z,20.65
2019-05-23T08:53:57.974Z,20.39
2019-05-23T08:54:55.453Z,20.28
2019-05-23T08:55:55.200Z,20.26
2019-05-23T08:56:55.288Z,20.25
2019-05-23T08:57:55.245Z,20.34
2019-05-23T08:58:55.466Z,20.47
2019-05-23T08:59:55.208Z,20.74
2019-05-23T09:00:55.285Z,20.81
2019-05-23T09:01:55.292Z,20.88
2019-05-23T09:02:58.419Z,20.75
2019-05-23T09:03:58.507Z,20.55
2019-05-23T09:05:09.862Z,20.43
2019-05-23T09:05:55.232Z,20.4
2019-05-23T09:06:55.504Z,20.36
2019-05-23T09:07:55.504Z,20.29
2019-05-23T09:08:55.295Z,20.37
2019-05-23T09:09:55.009Z,20.4
2019-05-23T09:10:55.265Z,20.58
2019-05-23T09:11:55.118Z,20.7
2019-05-23T09:12:55.515Z,20.52
2019-05-23T09:13:55.283Z,20.48
2019-05-23T09:14:57.195Z,20.55
2019-05-23T09:16:00.824Z,20.55
2019-05-23T09:16:55.530Z,20.56
2019-05-23T09:17:58.594Z,20.72
2019-05-23T09:18:55.288Z,20.69
2019-05-23T09:19:55.545Z,20.5
2019-05-23T09:20:55.284Z,20.44
2019-05-23T09:22:02.275Z,20.32
2019-05-23T09:22:55.298Z,20.34
2019-05-23T09:23:55.547Z,20.44
2019-05-23T09:24:55.364Z,20.63
2019-05-23T09:25:58.653Z,20.72
2019-05-23T09:26:55.551Z,20.85
2019-05-23T09:27:56.244Z,20.97
2019-05-23T09:28:55.313Z,21.02
2019-05-23T09:29:55.303Z,20.93
2019-05-23T09:30:55.547Z,20.93
2019-05-23T09:31:55.366Z,20.92
2019-05-23T09:32:55.323Z,20.8
2019-05-23T09:33:55.327Z,20.7
2019-05-23T09:34:55.557Z,20.58
2019-05-23T09:35:56.969Z,20.55
2019-05-23T09:37:00.423Z,20.55
2019-05-23T09:37:55.094Z,20.4
2019-05-23T09:38:55.679Z,20.4
2019-05-23T09:39:55.615Z,20.4
2019-05-23T09:40:55.571Z,20.5
2019-05-23T09:41:55.363Z,20.75
2019-05-23T09:42:55.747Z,20.93
2019-05-23T09:43:55.593Z,21.17
2019-05-23T09:44:55.420Z,21.27
2019-05-23T09:45:55.628Z,21.43
2019-05-23T09:46:58.143Z,21.39
2019-05-23T09:48:02.722Z,21.21
2019-05-23T09:48:55.600Z,21.05
2019-05-23T09:49:59.270Z,20.93
2019-05-23T09:50:55.364Z,20.97
2019-05-23T09:52:03.712Z,20.9
2019-05-23T09:52:55.611Z,20.67
2019-05-23T09:53:55.619Z,20.5
2019-05-23T09:54:55.440Z,20.41
2019-05-23T09:55:58.002Z,20.39
2019-05-23T09:56:55.390Z,20.4
2019-05-23T09:57:58.751Z,20.28
2019-05-23T09:58:55.391Z,20.13
2019-05-23T09:59:59.349Z,20.14
2019-05-23T10:00:55.445Z,20.1
2019-05-23T10:01:55.499Z,20.18
2019-05-23T10:02:55.389Z,20.24
2019-05-23T10:03:55.450Z,20.32
2019-05-23T10:04:55.673Z,20.22
2019-05-23T10:05:55.749Z,20.07
2019-05-23T10:06:55.651Z,19.91
2019-05-23T10:07:55.417Z,19.86
2019-05-23T10:08:57.267Z,19.88
2019-05-23T10:09:55.415Z,19.84
2019-05-23T10:10:55.460Z,19.86
2019-05-23T10:11:55.519Z,19.74
2019-05-23T10:12:55.694Z,19.76
2019-05-23T10:13:55.651Z,19.76
2019-05-23T10:14:55.434Z,19.81
2019-05-23T10:15:55.675Z,19.73
2019-05-23T10:16:55.654Z,19.74
2019-05-23T10:17:55.422Z,19.58
2019-05-23T10:18:58.715Z,19.59
2019-05-23T10:19:58.748Z,19.66
2019-05-23T10:20:55.421Z,19.84
2019-05-23T10:21:55.443Z,19.92
2019-05-23T10:22:55.659Z,20.04
2019-05-23T10:23:55.161Z,20.19
2019-05-23T10:24:55.669Z,20.19
2019-05-23T10:25:55.680Z,20.16
2019-05-23T10:26:55.708Z,20.14
2019-05-23T10:27:58.258Z,20.34
2019-05-23T10:28:55.670Z,20.28
2019-05-23T10:30:02.141Z,20.44
2019-05-23T10:30:55.429Z,20.51
2019-05-23T10:31:55.437Z,20.66
2019-05-23T10:32:55.803Z,20.65
2019-05-23T10:33:55.751Z,20.78
2019-05-23T10:34:55.708Z,20.78
2019-05-23T10:36:05.341Z,20.93
2019-05-23T10:36:55.492Z,21.02
2019-05-23T10:37:55.758Z,21.11
2019-05-23T10:38:55.693Z,21.17
2019-05-23T10:39:55.455Z,21.21
2019-05-23T10:40:58.791Z,21.24
2019-05-23T10:41:55.750Z,21.3
2019-05-23T10:42:55.205Z,21.29
2019-05-23T10:43:55.753Z,21.22
2019-05-23T10:44:55.696Z,21.07
2019-05-23T10:45:55.752Z,20.7
2019-05-23T10:46:55.566Z,20.51
2019-05-23T10:47:55.709Z,20.36
2019-05-23T10:48:55.466Z,20.25
2019-05-23T10:49:55.733Z,20.14
2019-05-23T10:50:56.085Z,20.06
2019-05-23T10:51:58.804Z,19.95
2019-05-23T10:52:55.503Z,19.86
2019-05-23T10:53:55.713Z,19.84
2019-05-23T10:54:55.761Z,19.76
2019-05-23T10:55:55.859Z,19.77
2019-05-23T10:56:55.514Z,19.81
2019-05-23T10:57:55.517Z,19.84
2019-05-23T10:58:55.508Z,19.95
2019-05-23T10:59:55.546Z,20.02
2019-05-23T11:00:55.823Z,20.22
2019-05-23T11:01:58.641Z,20.32
2019-05-23T11:02:55.742Z,20.56
2019-05-23T11:03:55.734Z,20.75
2019-05-23T11:04:55.564Z,20.93
2019-05-23T11:05:55.737Z,21.06
2019-05-23T11:06:55.545Z,21.11
2019-05-23T11:07:55.271Z,21.12
2019-05-23T11:08:55.768Z,21.14
2019-05-23T11:09:55.535Z,21.2
2019-05-23T11:10:55.802Z,21.24
2019-05-23T11:11:55.588Z,21.4
2019-05-23T11:12:58.780Z,21.35
2019-05-23T11:13:55.532Z,21.5
2019-05-23T11:14:55.516Z,21.54
2019-05-23T11:15:55.509Z,21.55
2019-05-23T11:16:55.518Z,21.64
2019-05-23T11:17:58.671Z,21.67
2019-05-23T11:18:55.513Z,21.8
2019-05-23T11:19:55.759Z,21.77
2019-05-23T11:20:55.265Z,21.85
2019-05-23T11:21:55.777Z,21.8
2019-05-23T11:22:55.564Z,21.91
2019-05-23T11:24:02.049Z,21.82
2019-05-23T11:24:55.614Z,21.62
2019-05-23T11:25:55.537Z,21.5
2019-05-23T11:26:55.760Z,21.24
2019-05-23T11:27:55.525Z,20.9
2019-05-23T11:28:55.795Z,20.8
2019-05-23T11:29:55.334Z,20.78
2019-05-23T11:30:55.756Z,20.81
2019-05-23T11:31:55.305Z,20.95
2019-05-23T11:32:55.557Z,20.7
2019-05-23T11:33:57.276Z,20.74
2019-05-23T11:34:58.832Z,20.67
2019-05-23T11:35:55.779Z,20.69
2019-05-23T11:36:55.565Z,20.59
2019-05-23T11:37:55.542Z,20.56
2019-05-23T11:38:55.793Z,20.55
2019-05-23T11:39:56.462Z,20.48
2019-05-23T11:40:55.797Z,20.48
2019-05-23T11:41:55.809Z,20.65
2019-05-23T11:42:57.716Z,20.67
2019-05-23T11:43:55.588Z,20.63
2019-05-23T11:44:58.868Z,20.5
2019-05-23T11:45:55.829Z,20.44
2019-05-23T11:46:55.848Z,20.55
2019-05-23T11:47:56.326Z,20.7
2019-05-23T11:48:56.419Z,20.69
2019-05-23T11:49:55.563Z,20.69
2019-05-23T11:50:55.868Z,20.62
2019-05-23T11:51:55.816Z,20.74
2019-05-23T11:52:58.522Z,20.74
2019-05-23T11:54:12.680Z,20.69
2019-05-23T11:54:55.941Z,20.6
2019-05-23T11:56:03.160Z,20.59
2019-05-23T11:56:55.585Z,20.51
2019-05-23T11:57:55.585Z,20.51
2019-05-23T11:59:00.773Z,20.6
2019-05-23T11:59:55.584Z,20.63
2019-05-23T12:00:56.144Z,20.63
2019-05-23T12:01:55.950Z,20.63
2019-05-23T12:02:55.662Z,20.63
2019-05-23T12:03:55.838Z,20.51
2019-05-23T12:04:55.599Z,20.58
2019-05-23T12:05:56.451Z,20.63
2019-05-23T12:07:02.223Z,20.77
2019-05-23T12:07:55.611Z,20.87
2019-05-23T12:08:55.587Z,21
2019-05-23T12:09:55.571Z,21.11
2019-05-23T12:10:55.583Z,21.14
2019-05-23T12:11:55.832Z,21.22
2019-05-23T12:12:55.830Z,21.24
2019-05-23T12:13:55.838Z,21.36
2019-05-23T12:14:55.843Z,21.4
2019-05-23T12:15:55.830Z,21.32
2019-05-23T12:16:58.871Z,21.14
2019-05-23T12:18:02.163Z,21
2019-05-23T12:18:55.954Z,21
2019-05-23T12:19:55.561Z,20.93
2019-05-23T12:20:59.349Z,20.88
2019-05-23T12:21:55.926Z,20.96
2019-05-23T12:22:55.940Z,20.9
2019-05-23T12:23:55.843Z,20.9
2019-05-23T12:24:55.864Z,20.85
2019-05-23T12:25:55.846Z,20.95
2019-05-23T12:26:55.606Z,20.77
2019-05-23T12:27:57.071Z,20.74
2019-05-23T12:28:55.856Z,20.75
2019-05-23T12:29:55.847Z,20.72
2019-05-23T12:30:55.907Z,20.8
2019-05-23T12:31:55.637Z,20.93
2019-05-23T12:32:55.851Z,21.06
2019-05-23T12:33:55.880Z,21.06
2019-05-23T12:35:14.842Z,20.97
2019-05-23T12:35:55.854Z,20.97
2019-05-23T12:37:20.210Z,20.85
2019-05-23T12:37:55.851Z,20.81
2019-05-23T12:38:58.888Z,20.78
2019-05-23T12:39:55.620Z,20.75
2019-05-23T12:40:55.871Z,20.74
2019-05-23T12:41:55.903Z,20.7
2019-05-23T12:42:55.862Z,20.9
2019-05-23T12:43:55.664Z,21.02
2019-05-23T12:44:55.877Z,21.09
2019-05-23T12:45:55.642Z,21.09
2019-05-23T12:46:55.918Z,21.05
2019-05-23T12:47:55.879Z,21.09
2019-05-23T12:48:57.415Z,21.15
2019-05-23T12:49:58.920Z,21.17
2019-05-23T12:50:58.924Z,21.2
2019-05-23T12:51:55.922Z,21.22
2019-05-23T12:52:55.638Z,21.36
2019-05-23T12:53:55.681Z,21.45
2019-05-23T12:54:55.891Z,21.51
2019-05-23T12:55:56.007Z,21.54
2019-05-23T12:56:55.892Z,21.52
2019-05-23T12:57:55.670Z,21.48
2019-05-23T12:58:55.902Z,21.36
2019-05-23T12:59:58.913Z,21.17
2019-05-23T13:00:55.968Z,21.14
2019-05-23T13:01:55.982Z,21.09
2019-05-23T13:02:55.759Z,21.05
2019-05-23T13:03:55.984Z,21.09